createdAt,value
2022-08-11T00:00:20.163Z,18.67
2022-08-11T00:05:20.105Z,18.34
2022-08-11T00:10:20.043Z,17.97
2022-08-11T00:15:19.962Z,18.17
2022-08-11T00:20:19.893Z,18.13
2022-08-11T00:25:19.884Z,18.49
2022-08-11T00:30:19.764Z,18.90
2022-08-11T00:35:52.533Z,18.57
2022-08-11T00:40:20.654Z,17.95
2022-08-11T00:45:19.568Z,17.78
2022-08-11T00:50:19.501Z,17.66
2022-08-11T00:55:19.491Z,17.84
2022-08-11T01:00:19.386Z,17.74
2022-08-11T01:05:19.313Z,17.82
2022-08-11T01:10:19.267Z,17.78
2022-08-11T01:15:19.222Z,17.62
2022-08-11T01:20:48.124Z,17.10
2022-08-11T01:25:20.247Z,16.96
2022-08-11T01:30:18.978Z,17.20
2022-08-11T01:35:18.930Z,17.07
2022-08-11T01:40:18.849Z,16.95
2022-08-11T01:45:18.777Z,17.13
2022-08-11T01:50:18.720Z,17.46
2022-08-11T01:55:18.660Z,17.64
2022-08-11T02:00:18.632Z,17.35
2022-08-11T02:05:18.529Z,16.74
2022-08-11T02:10:18.450Z,16.33
2022-08-11T02:15:18.391Z,16.26
2022-08-11T02:20:18.331Z,16.27
2022-08-11T02:25:18.260Z,16.34
2022-08-11T02:30:18.363Z,16.63
2022-08-11T02:35:18.121Z,16.60
2022-08-11T02:40:18.071Z,16.42
2022-08-11T02:45:17.992Z,16.42
2022-08-11T02:50:17.916Z,16.73
2022-08-11T02:55:44.478Z,16.48
2022-08-11T03:00:18.781Z,16.30
2022-08-11T03:05:17.758Z,16.06
2022-08-11T03:10:17.653Z,15.72
2022-08-11T03:15:17.592Z,15.66
2022-08-11T03:20:17.533Z,15.42
2022-08-11T03:25:17.453Z,15.39
2022-08-11T03:30:17.398Z,15.31
2022-08-11T03:35:21.327Z,15.33
2022-08-11T03:40:17.275Z,15.57
2022-08-11T03:45:17.251Z,15.79
2022-08-11T03:50:17.254Z,15.54
2022-08-11T03:55:17.112Z,15.81
2022-08-11T04:00:17.016Z,15.96
2022-08-11T04:05:16.977Z,15.82
2022-08-11T04:10:16.880Z,15.68
2022-08-11T04:15:16.820Z,15.89
2022-08-11T04:20:16.778Z,15.93
2022-08-11T04:25:16.684Z,16.03
2022-08-11T04:30:16.901Z,15.97
2022-08-11T04:35:16.554Z,16.07
2022-08-11T04:40:16.753Z,16.14
2022-08-11T04:45:16.400Z,16.42
2022-08-11T04:50:16.358Z,17.87
2022-08-11T04:55:16.279Z,19.97
2022-08-11T05:00:16.204Z,22.09
2022-08-11T05:05:16.150Z,23.20
2022-08-11T05:10:16.070Z,24.00
2022-08-11T05:15:16.033Z,24.64
2022-08-11T05:20:15.953Z,25.82
2022-08-11T05:26:44.735Z,25.91
2022-08-11T05:30:16.822Z,26.79
2022-08-11T05:35:28.309Z,27.06
2022-08-11T05:40:16.687Z,27.21
2022-08-11T05:45:15.905Z,27.42
2022-08-11T05:50:15.562Z,27.79
2022-08-11T05:55:15.530Z,27.84
2022-08-11T06:00:15.471Z,27.91
2022-08-11T06:05:15.431Z,27.26
2022-08-11T06:10:15.349Z,28.19
2022-08-11T06:15:15.275Z,27.99
2022-08-11T06:20:15.234Z,28.97
2022-08-11T06:25:15.180Z,29.37
2022-08-11T06:30:15.105Z,29.65
2022-08-11T06:35:15.042Z,29.89
2022-08-11T06:40:14.971Z,30.07
2022-08-11T06:45:14.940Z,30.56
2022-08-11T06:50:14.854Z,30.74
2022-08-11T06:55:55.763Z,30.89
2022-08-11T07:00:15.736Z,31.18
2022-08-11T07:05:14.685Z,31.49
2022-08-11T07:10:14.620Z,31.60
2022-08-11T07:15:14.558Z,31.64
2022-08-11T07:20:14.499Z,31.48
2022-08-11T07:25:14.502Z,31.79
2022-08-11T07:30:14.464Z,31.67
2022-08-11T07:35:14.348Z,32.05
2022-08-11T07:40:14.273Z,32.47
2022-08-11T07:45:14.226Z,32.69
2022-08-11T07:50:14.171Z,32.74
2022-08-11T07:55:14.148Z,32.99
2022-08-11T08:00:14.037Z,32.98
2022-08-11T08:05:13.989Z,32.92
2022-08-11T08:10:15.945Z,33.14
2022-08-11T08:15:13.871Z,33.49
2022-08-11T08:20:13.811Z,33.55
2022-08-11T08:25:13.767Z,32.89
2022-08-11T08:30:13.704Z,31.75
2022-08-11T08:35:13.635Z,31.88
2022-08-11T08:40:13.587Z,32.59
2022-08-11T08:45:13.518Z,32.48
2022-08-11T08:50:16.941Z,31.50
2022-08-11T08:55:13.399Z,30.81
2022-08-11T09:00:14.466Z,30.52
2022-08-11T09:05:13.277Z,30.02
2022-08-11T09:10:13.226Z,29.44
2022-08-11T09:15:13.180Z,29.71
2022-08-11T09:20:13.085Z,29.56
2022-08-11T09:25:13.054Z,29.01
2022-08-11T09:30:12.969Z,28.97
2022-08-11T09:35:12.912Z,29.31
2022-08-11T09:40:12.853Z,29.11
2022-08-11T09:45:12.821Z,28.73
2022-08-11T09:50:12.717Z,29.23
2022-08-11T09:55:12.643Z,28.72
2022-08-11T10:00:14.092Z,28.90
2022-08-11T10:05:12.555Z,28.44
2022-08-11T10:10:12.461Z,28.22
2022-08-11T10:15:12.438Z,28.62
2022-08-11T10:20:12.350Z,29.35
2022-08-11T10:25:12.298Z,29.33
2022-08-11T10:30:12.200Z,28.77
2022-08-11T10:35:12.154Z,28.47
2022-08-11T10:40:12.093Z,28.56
2022-08-11T10:45:12.013Z,28.62
2022-08-11T10:50:11.955Z,28.59
2022-08-11T10:55:11.935Z,28.09
2022-08-11T11:00:11.816Z,28.32
2022-08-11T11:05:11.768Z,28.59
2022-08-11T11:10:11.965Z,28.59
2022-08-11T11:15:17.720Z,28.54
2022-08-11T11:20:34.524Z,28.19
2022-08-11T11:25:12.521Z,28.50
2022-08-11T11:30:11.445Z,28.77
2022-08-11T11:35:11.392Z,29.03
2022-08-11T11:40:11.325Z,29.15
2022-08-11T11:45:22.685Z,28.68
2022-08-11T11:50:12.541Z,28.33
2022-08-11T11:55:11.195Z,28.58
2022-08-11T12:00:11.041Z,28.50
2022-08-11T12:05:10.975Z,28.48
2022-08-11T12:10:10.947Z,28.59
2022-08-11T12:15:10.860Z,28.82
2022-08-11T12:20:31.583Z,28.85
2022-08-11T12:25:11.736Z,28.75
2022-08-11T12:30:10.687Z,28.50
2022-08-11T12:35:10.586Z,28.75
2022-08-11T12:40:16.310Z,28.77
2022-08-11T12:45:22.071Z,28.70
2022-08-11T12:50:22.770Z,28.80
2022-08-11T12:55:13.692Z,28.93
2022-08-11T13:00:10.416Z,28.90
2022-08-11T13:05:10.245Z,28.97
2022-08-11T13:10:11.431Z,28.93
2022-08-11T13:15:11.243Z,28.87
2022-08-11T13:20:10.184Z,28.62
2022-08-11T13:25:09.946Z,28.69
2022-08-11T13:30:10.867Z,28.81
2022-08-11T13:35:09.815Z,28.84
2022-08-11T13:40:09.742Z,28.77
2022-08-11T13:45:09.669Z,28.62
2022-08-11T13:50:09.610Z,28.62
2022-08-11T13:55:09.548Z,28.54
2022-08-11T14:00:09.472Z,28.62
2022-08-11T14:05:09.444Z,28.63
2022-08-11T14:10:09.354Z,28.51
2022-08-11T14:15:09.308Z,28.46
2022-08-11T14:20:37.804Z,28.43
2022-08-11T14:25:10.587Z,28.41
2022-08-11T14:30:09.073Z,28.47
2022-08-11T14:35:10.420Z,28.47
2022-08-11T14:40:08.962Z,28.40
2022-08-11T14:45:08.880Z,28.36
2022-08-11T14:50:11.168Z,28.33
2022-08-11T14:55:08.785Z,28.29
2022-08-11T15:00:08.674Z,28.28
2022-08-11T15:05:08.613Z,28.29
2022-08-11T15:10:15.763Z,28.22
2022-08-11T15:15:09.538Z,28.09
2022-08-11T15:20:08.468Z,27.94
2022-08-11T15:25:08.367Z,27.96
2022-08-11T15:30:08.480Z,27.86
2022-08-11T15:35:08.290Z,27.85
2022-08-11T15:40:08.212Z,27.82
2022-08-11T15:45:09.151Z,27.85
2022-08-11T15:50:11.855Z,27.76
2022-08-11T15:55:09.034Z,27.79
2022-08-11T16:00:07.971Z,27.73
2022-08-11T16:05:07.875Z,27.59
2022-08-11T16:10:09.407Z,27.48
2022-08-11T16:15:07.772Z,27.53
2022-08-11T16:20:07.683Z,27.57
2022-08-11T16:27:03.987Z,27.58
2022-08-11T16:30:08.560Z,27.47
2022-08-11T16:35:07.741Z,27.36
2022-08-11T16:40:07.459Z,27.28
2022-08-11T16:45:07.361Z,27.19
2022-08-11T16:50:07.310Z,27.11
2022-08-11T16:55:07.253Z,27.09
2022-08-11T17:00:07.234Z,27.01
2022-08-11T17:05:07.086Z,26.89
2022-08-11T17:10:31.838Z,26.81
2022-08-11T17:15:07.976Z,26.74
2022-08-11T17:20:39.956Z,26.65
2022-08-11T17:25:07.883Z,26.68
2022-08-11T17:30:07.369Z,26.64
2022-08-11T17:35:06.691Z,26.62
2022-08-11T17:40:06.810Z,26.57
2022-08-11T17:45:06.571Z,26.52
2022-08-11T17:50:16.791Z,26.42
2022-08-11T17:55:07.775Z,26.28
2022-08-11T18:00:06.375Z,26.18
2022-08-11T18:05:12.379Z,25.97
2022-08-11T18:10:07.249Z,25.82
2022-08-11T18:15:06.187Z,25.75
2022-08-11T18:20:06.117Z,25.61
2022-08-11T18:25:06.060Z,25.46
2022-08-11T18:30:06.002Z,25.24
2022-08-11T18:35:05.938Z,25.15
2022-08-11T18:40:05.882Z,24.91
2022-08-11T18:45:06.031Z,24.88
2022-08-11T18:50:05.893Z,24.68
2022-08-11T18:55:05.652Z,24.64
2022-08-11T19:00:05.586Z,24.47
2022-08-11T19:05:05.520Z,24.45
2022-08-11T19:10:05.457Z,24.37
2022-08-11T19:15:05.395Z,24.04
2022-08-11T19:20:05.388Z,23.97
2022-08-11T19:25:05.265Z,23.92
2022-08-11T19:30:13.051Z,23.83
2022-08-11T19:35:06.820Z,23.75
2022-08-11T19:40:05.062Z,23.77
2022-08-11T19:45:05.018Z,23.61
2022-08-11T19:50:05.041Z,23.22
2022-08-11T19:55:04.864Z,22.97
2022-08-11T20:00:04.818Z,23.22
2022-08-11T20:05:04.774Z,23.38
2022-08-11T20:10:06.575Z,23.35
2022-08-11T20:15:04.600Z,23.80
2022-08-11T20:20:04.570Z,23.23
2022-08-11T20:25:04.496Z,23.52
2022-08-11T20:30:04.405Z,23.35
2022-08-11T20:35:04.327Z,22.46
2022-08-11T20:40:04.326Z,22.10
2022-08-11T20:45:04.210Z,22.04
2022-08-11T20:50:04.153Z,22.84
2022-08-11T20:55:04.328Z,23.11
2022-08-11T21:00:05.026Z,22.96
2022-08-11T21:05:04.048Z,22.52
2022-08-11T21:10:09.896Z,22.43
2022-08-11T21:15:05.051Z,22.14
2022-08-11T21:20:08.006Z,22.17
2022-08-11T21:25:04.696Z,21.88
2022-08-11T21:30:03.654Z,22.01
2022-08-11T21:35:03.544Z,22.54
2022-08-11T21:40:03.580Z,22.38
2022-08-11T21:45:03.409Z,21.69
2022-08-11T21:50:03.354Z,21.02
2022-08-11T21:55:03.299Z,20.33
2022-08-11T22:00:03.511Z,20.54
2022-08-11T22:05:03.147Z,20.54
2022-08-11T22:10:34.254Z,20.50
2022-08-11T22:15:04.010Z,20.39
2022-08-11T22:20:02.946Z,20.51
2022-08-11T22:25:02.889Z,20.64
2022-08-11T22:30:03.812Z,20.02
2022-08-11T22:35:02.746Z,20.20
2022-08-11T22:40:03.331Z,20.72
2022-08-11T22:45:02.604Z,20.31
2022-08-11T22:50:02.544Z,19.68
2022-08-11T22:55:02.484Z,19.23
2022-08-11T23:00:02.482Z,19.02
2022-08-11T23:05:02.375Z,19.31
2022-08-11T23:10:02.295Z,18.99
2022-08-11T23:15:02.228Z,18.80
2022-08-11T23:20:13.268Z,19.83
2022-08-11T23:25:03.098Z,19.53
2022-08-11T23:30:02.038Z,19.29
2022-08-11T23:35:04.579Z,19.01
2022-08-11T23:40:02.917Z,19.32
2022-08-11T23:45:01.840Z,19.10
2022-08-11T23:50:01.785Z,19.29
2022-08-11T23:55:01.697Z,19.36
